Time;durP1;ratioP1;P1;durP2;ratioP2;P2;SDS_P1;SDS_P2;PMS_P1;PMS_P2;Temp;Humidity;BMP_temperature;BMP_pressure;BME280_temperature;BME280_humidity;BME280_pressure;Samples;Min_cycle;Max_cycle;Signal;HPM_P1;HPM_P2
2022/12/21 00:00:21;;;;;;;;;;;;;;;;;;4399230;32;67033;-74
2022/12/21 00:03:08;;;;;;;;;;;;;;;;;;4400558;32;60167;-75
2022/12/21 00:05:56;;;;;;;;;;;;;;;;;;4388095;32;69804;-74
2022/12/21 00:08:45;;;;;;;;;;;;;;;;;;4398948;32;69486;-74
2022/12/21 00:11:31;;;;;;;;;;;;;;;;;;4398809;32;66842;-74
2022/12/21 00:14:17;;;;;;;;;;;;;;;;;;4387378;32;72782;-75
2022/12/21 00:17:03;;;;;;;;;;;;;;;;;;4398678;32;65861;-74
2022/12/21 00:19:50;;;;;;;;;;;;;;;;;;4387481;32;67585;-74
2022/12/21 00:22:36;;;;;;;;;;;;;;;;;;4387943;32;67995;-74
2022/12/21 00:25:23;;;;;;;;;;;;;;;;;;4387390;32;72380;-75
2022/12/21 00:28:09;;;;;;;;;;;;;;;;;;4377257;32;64950;-73
2022/12/21 00:30:55;;;;;;;;;;;;;;;;;;4398604;32;67360;-74
2022/12/21 00:33:42;;;;;;;;;;;;;;;;;;4388113;32;59444;-75
2022/12/21 00:36:28;;;;;;;;;;;;;;;;;;4376596;32;70980;-78
2022/12/21 00:39:15;;;;;;;;;;;;;;;;;;4397197;32;69977;-74
2022/12/21 00:42:02;;;;;;;;;;;;;;;;;;4398366;32;66867;-74
2022/12/21 00:44:48;;;;;;;;;;;;;;;;;;4387502;32;58458;-75
2022/12/21 00:47:35;;;;;;;;;;;;;;;;;;4398270;32;70086;-74
2022/12/21 00:50:21;;;;;;;;;;;;;;;;;;4398241;32;69603;-74
2022/12/21 00:53:11;;;;;;;;;;;;;;;;;;4398330;32;67992;-74
2022/12/21 00:55:58;;;;;;;;;;;;;;;;;;4387766;32;71048;-74
2022/12/21 00:58:45;;;;;;;;;;;;;;;;;;4398274;32;65238;-74
2022/12/21 01:01:32;;;;;;;;;;;;;;;;;;4387718;32;66784;-75
2022/12/21 01:04:18;;;;;;;;;;;;;;;;;;4398345;32;58913;-74
2022/12/21 01:07:04;;;;;;;;;;;;;;;;;;4399159;32;69751;-74
2022/12/21 01:09:51;;;;;;;;;;;;;;;;;;4365804;32;65997;-75
2022/12/21 01:12:37;;;;;;;;;;;;;;;;;;4387457;32;67581;-74
2022/12/21 01:15:23;;;;;;;;;;;;;;;;;;4399364;32;59484;-74
2022/12/21 01:18:10;;;;;;;;;;;;;;;;;;4399354;32;69902;-74
2022/12/21 01:20:57;;;;;;;;;;;;;;;;;;4397900;32;69515;-74
2022/12/21 01:23:43;;;;;;;;;;;;;;;;;;4399093;32;67519;-75
2022/12/21 01:26:29;;;;;;;;;;;;;;;;;;4397633;32;72127;-75
2022/12/21 01:29:15;;;;;;;;;;;;;;;;;;4387246;32;65786;-75
2022/12/21 01:32:02;;;;;;;;;;;;;;;;;;4398013;32;67497;-74
2022/12/21 01:34:48;;;;;;;;;;;;;;;;;;4399252;32;67808;-75
2022/12/21 01:37:34;;;;;;;;;;;;;;;;;;4397692;32;71809;-75
2022/12/21 01:40:22;;;;;;;;;;;;;;;;;;4397718;32;66076;-74
2022/12/21 01:43:32;;;;;;;;;;;;;;;;;;4399056;32;66890;-73
2022/12/21 01:46:39;;;;;;;;;;;;;;;;;;4397762;32;60397;-74
2022/12/21 01:49:27;;;;;;;;;;;;;;;;;;4365202;32;70118;-76
2022/12/21 01:52:13;;;;;;;;;;;;;;;;;;4391095;32;69765;-75
2022/12/21 01:55:00;;;;;;;;;;;;;;;;;;4379954;32;68528;-75
2022/12/21 01:57:47;;;;;;;;;;;;;;;;;;4380876;32;72490;-75
2022/12/21 02:00:34;;;;;;;;;;;;;;;;;;4402076;32;70027;-75
2022/12/21 02:03:21;;;;;;;;;;;;;;;;;;4392162;32;68634;-75
2022/12/21 02:06:09;;;;;;;;;;;;;;;;;;4391402;32;67444;-75
2022/12/21 02:08:55;;;;;;;;;;;;;;;;;;4387910;32;70947;-74
2022/12/21 02:11:42;;;;;;;;;;;;;;;;;;4386808;32;66422;-75
2022/12/21 02:14:28;;;;;;;;;;;;;;;;;;4376155;32;67545;-74
2022/12/21 02:17:18;;;;;;;;;;;;;;;;;;4376029;32;60338;-74
2022/12/21 02:20:23;;;;;;;;;;;;;;;;;;4386730;32;69820;-75
2022/12/21 02:23:26;;;;;;;;;;;;;;;;;;4398473;32;69585;-74
2022/12/21 02:26:19;;;;;;;;;;;;;;;;;;4396747;32;68285;-75
2022/12/21 02:29:19;;;;;;;;;;;;;;;;;;4386810;32;59750;-75
2022/12/21 02:32:18;;;;;;;;;;;;;;;;;;4397136;32;70000;-75
2022/12/21 02:35:10;;;;;;;;;;;;;;;;;;4396996;32;69943;-75
2022/12/21 02:38:01;;;;;;;;;;;;;;;;;;4398504;32;67853;-74
2022/12/21 02:40:52;;;;;;;;;;;;;;;;;;4396885;32;70832;-75
2022/12/21 02:46:46;;;;;;;;;;;;;;;;;;4397409;32;67133;-75
2022/12/21 02:49:51;;;;;;;;;;;;;;;;;;4398829;32;59600;-74
2022/12/21 02:53:04;;;;;;;;;;;;;;;;;;4397562;32;71986;-75
2022/12/21 02:55:51;;;;;;;;;;;;;;;;;;4399540;32;66322;-75
2022/12/21 02:58:37;;;;;;;;;;;;;;;;;;4404093;32;67625;-75
2022/12/21 03:01:23;;;;;;;;;;;;;;;;;;4400645;32;59059;-75
2022/12/21 03:04:10;;;;;;;;;;;;;;;;;;4400971;32;70240;-73
2022/12/21 03:06:59;;;;;;;;;;;;;;;;;;4400898;32;68838;-74
2022/12/21 03:09:50;;;;;;;;;;;;;;;;;;4400633;32;66806;-75
2022/12/21 03:12:46;;;;;;;;;;;;;;;;;;4399816;32;70997;-74
2022/12/21 03:15:33;;;;;;;;;;;;;;;;;;4387597;32;69713;-74
2022/12/21 03:18:23;;;;;;;;;;;;;;;;;;4388658;32;69099;-74
2022/12/21 03:21:13;;;;;;;;;;;;;;;;;;4388720;32;66790;-74
2022/12/21 03:24:02;;;;;;;;;;;;;;;;;;4398742;32;72595;-75
2022/12/21 03:26:50;;;;;;;;;;;;;;;;;;4399310;32;65151;-74
2022/12/21 03:29:37;;;;;;;;;;;;;;;;;;4388603;32;67019;-75
2022/12/21 03:32:38;;;;;;;;;;;;;;;;;;4399715;32;59957;-75
2022/12/21 03:35:37;;;;;;;;;;;;;;;;;;4376962;32;70473;-75
2022/12/21 03:38:29;;;;;;;;;;;;;;;;;;4388467;32;69254;-75
2022/12/21 03:41:21;;;;;;;;;;;;;;;;;;4388789;32;68019;-74
2022/12/21 03:44:08;;;;;;;;;;;;;;;;;;4399516;32;59768;-76
2022/12/21 03:46:56;;;;;;;;;;;;;;;;;;4399464;32;70347;-75
2022/12/21 03:49:44;;;;;;;;;;;;;;;;;;4388549;32;69519;-75
2022/12/21 03:52:42;;;;;;;;;;;;;;;;;;4399081;32;67181;-74
2022/12/21 03:55:29;;;;;;;;;;;;;;;;;;4398842;32;71866;-75
2022/12/21 03:58:15;;;;;;;;;;;;;;;;;;4399139;32;65538;-74
2022/12/21 04:01:23;;;;;;;;;;;;;;;;;;4388291;32;68029;-74
2022/12/21 04:04:16;;;;;;;;;;;;;;;;;;4399028;32;59732;-74
2022/12/21 04:07:03;;;;;;;;;;;;;;;;;;4388034;32;71798;-75
2022/12/21 04:09:59;;;;;;;;;;;;;;;;;;4398909;32;65013;-74
2022/12/21 04:12:46;;;;;;;;;;;;;;;;;;4399842;32;68357;-74
2022/12/21 04:21:43;;;;;;;;;;;;;;;;;;4398667;32;68579;-74
2022/12/21 04:30:40;;;;;;;;;;;;;;;;;;4387415;32;63649;-75
2022/12/21 04:33:27;;;;;;;;;;;;;;;;;;4387793;32;68450;-75
2022/12/21 04:39:19;;;;;;;;;;;;;;;;;;4399423;32;71934;-74
2022/12/21 04:42:05;;;;;;;;;;;;;;;;;;4398622;32;65750;-74
2022/12/21 04:44:52;;;;;;;;;;;;;;;;;;4398301;32;67418;-74
2022/12/21 04:47:38;;;;;;;;;;;;;;;;;;4399677;32;59242;-72
2022/12/21 04:50:24;;;;;;;;;;;;;;;;;;4387350;32;70132;-74
2022/12/21 04:53:10;;;;;;;;;;;;;;;;;;4399475;32;68880;-75
2022/12/21 04:55:56;;;;;;;;;;;;;;;;;;4399377;32;67462;-74
2022/12/21 04:58:44;;;;;;;;;;;;;;;;;;4376670;32;58673;-74
2022/12/21 05:01:30;;;;;;;;;;;;;;;;;;4398299;32;70149;-74
2022/12/21 05:04:16;;;;;;;;;;;;;;;;;;4375988;32;68938;-75
2022/12/21 05:07:03;;;;;;;;;;;;;;;;;;4398038;32;67844;-74
2022/12/21 05:09:49;;;;;;;;;;;;;;;;;;4397728;32;71293;-75
2022/12/21 05:12:37;;;;;;;;;;;;;;;;;;4386710;32;66842;-75
2022/12/21 05:15:23;;;;;;;;;;;;;;;;;;4375471;32;68247;-75
2022/12/21 05:18:10;;;;;;;;;;;;;;;;;;4399293;32;58696;-74
2022/12/21 05:20:56;;;;;;;;;;;;;;;;;;4387112;32;70020;-73
2022/12/21 05:23:43;;;;;;;;;;;;;;;;;;4387349;32;65439;-74
2022/12/21 05:26:30;;;;;;;;;;;;;;;;;;4376301;32;67379;-74
2022/12/21 05:29:17;;;;;;;;;;;;;;;;;;4387329;32;58700;-73
2022/12/21 05:32:03;;;;;;;;;;;;;;;;;;4386154;32;68907;-75
2022/12/21 05:34:49;;;;;;;;;;;;;;;;;;4398989;32;68961;-75
2022/12/21 05:37:36;;;;;;;;;;;;;;;;;;4397094;32;68085;-74
2022/12/21 05:40:22;;;;;;;;;;;;;;;;;;4397200;32;72406;-72
2022/12/21 05:43:08;;;;;;;;;;;;;;;;;;4387286;32;65297;-72
2022/12/21 05:46:02;;;;;;;;;;;;;;;;;;4397930;32;69263;-74
2022/12/21 05:48:48;;;;;;;;;;;;;;;;;;4387431;32;66965;-75
2022/12/21 05:51:35;;;;;;;;;;;;;;;;;;4397639;32;71318;-72
2022/12/21 05:54:21;;;;;;;;;;;;;;;;;;4397464;32;66432;-72
2022/12/21 05:57:08;;;;;;;;;;;;;;;;;;4398615;32;67626;-72
2022/12/21 05:59:54;;;;;;;;;;;;;;;;;;4397688;32;59414;-70
2022/12/21 06:02:41;;;;;;;;;;;;;;;;;;4397243;32;70303;-70
2022/12/21 06:05:28;;;;;;;;;;;;;;;;;;4397268;32;69367;-73
2022/12/21 06:08:14;;;;;;;;;;;;;;;;;;4375399;32;67623;-73
2022/12/21 06:11:05;;;;;;;;;;;;;;;;;;4365130;32;58339;-72
2022/12/21 06:13:53;;;;;;;;;;;;;;;;;;4375925;32;69922;-71
2022/12/21 06:16:40;;;;;;;;;;;;;;;;;;4398200;32;69716;-70
2022/12/21 06:19:27;;;;;;;;;;;;;;;;;;4386539;32;67738;-69
2022/12/21 06:22:14;;;;;;;;;;;;;;;;;;4385934;32;70480;-72
2022/12/21 06:25:02;;;;;;;;;;;;;;;;;;4375906;32;66219;-71
2022/12/21 06:27:49;;;;;;;;;;;;;;;;;;4397063;32;68190;-69
2022/12/21 06:30:35;;;;;;;;;;;;;;;;;;4375268;32;59913;-71
2022/12/21 06:33:22;;;;;;;;;;;;;;;;;;4396549;32;71022;-70
2022/12/21 06:36:09;;;;;;;;;;;;;;;;;;4386587;32;66137;-69
2022/12/21 06:38:56;;;;;;;;;;;;;;;;;;4399696;32;67930;-70
2022/12/21 06:41:43;;;;;;;;;;;;;;;;;;4388757;32;57606;-70
2022/12/21 06:44:30;;;;;;;;;;;;;;;;;;4399762;32;69627;-70
2022/12/21 06:47:16;;;;;;;;;;;;;;;;;;4389114;32;68466;-71
2022/12/21 06:50:03;;;;;;;;;;;;;;;;;;4399976;32;67213;-72
2022/12/21 06:52:50;;;;;;;;;;;;;;;;;;4389065;32;72059;-72
2022/12/21 06:55:37;;;;;;;;;;;;;;;;;;4389760;32;65850;-71
2022/12/21 06:58:23;;;;;;;;;;;;;;;;;;4388831;32;67811;-71
2022/12/21 07:01:15;;;;;;;;;;;;;;;;;;4388953;32;66833;-70
2022/12/21 07:04:01;;;;;;;;;;;;;;;;;;4388938;32;71903;-70
2022/12/21 07:06:48;;;;;;;;;;;;;;;;;;4378360;32;66312;-69
2022/12/21 07:09:35;;;;;;;;;;;;;;;;;;4399553;32;67604;-70
2022/12/21 07:12:22;;;;;;;;;;;;;;;;;;4400928;32;59061;-72
2022/12/21 07:15:08;;;;;;;;;;;;;;;;;;4388376;32;69570;-69
2022/12/21 07:17:55;;;;;;;;;;;;;;;;;;4377478;32;70096;-69
2022/12/21 07:20:41;;;;;;;;;;;;;;;;;;4399510;32;67719;-72
2022/12/21 07:23:28;;;;;;;;;;;;;;;;;;4377748;32;71619;-70
2022/12/21 07:26:18;;;;;;;;;;;;;;;;;;4388295;32;69967;-68
2022/12/21 07:29:05;;;;;;;;;;;;;;;;;;4377421;32;70066;-70
2022/12/21 07:31:52;;;;;;;;;;;;;;;;;;4388524;32;68028;-71
2022/12/21 07:34:38;;;;;;;;;;;;;;;;;;4399165;32;72034;-69
2022/12/21 07:37:24;;;;;;;;;;;;;;;;;;4387650;32;67065;-69
2022/12/21 07:40:11;;;;;;;;;;;;;;;;;;4388617;32;68172;-69
2022/12/21 07:42:58;;;;;;;;;;;;;;;;;;4377610;32;59806;-68
2022/12/21 07:45:47;;;;;;;;;;;;;;;;;;4398409;32;70627;-68
2022/12/21 07:48:26;;;;;;;;;;;;;;;;;;3847536;37;43726;-73
2022/12/21 07:51:13;;;;;;;;;;;;;;;;;;4411704;32;58711;-68
2022/12/21 07:53:59;;;;;;;;;;;;;;;;;;4399623;32;69320;-71
2022/12/21 07:56:49;;;;;;;;;;;;;;;;;;4400087;32;68956;-70
2022/12/21 07:59:36;;;;;;;;;;;;;;;;;;4400096;32;68057;-72
2022/12/21 08:02:23;;;;;;;;;;;;;;;;;;4399416;32;70867;-67
2022/12/21 08:05:10;;;;;;;;;;;;;;;;;;4411364;32;65319;-69
2022/12/21 08:07:57;;;;;;;;;;;;;;;;;;4388016;32;66062;-68
2022/12/21 08:10:46;;;;;;;;;;;;;;;;;;4399409;32;59559;-69
2022/12/21 08:13:32;;;;;;;;;;;;;;;;;;4411113;32;71991;-70
2022/12/21 08:16:19;;;;;;;;;;;;;;;;;;4387615;32;66038;-71
2022/12/21 08:19:05;;;;;;;;;;;;;;;;;;4409876;32;66797;-70
2022/12/21 08:21:52;;;;;;;;;;;;;;;;;;4409606;32;60319;-72
2022/12/21 08:24:38;;;;;;;;;;;;;;;;;;4409815;32;70217;-70
2022/12/21 08:27:24;;;;;;;;;;;;;;;;;;4409637;32;68639;-71
2022/12/21 08:30:11;;;;;;;;;;;;;;;;;;4398565;32;69130;-73
2022/12/21 08:32:57;;;;;;;;;;;;;;;;;;4410878;32;71569;-72
2022/12/21 08:35:43;;;;;;;;;;;;;;;;;;4410070;32;66149;-72
2022/12/21 08:38:30;;;;;;;;;;;;;;;;;;4409702;32;69023;-75
2022/12/21 08:41:16;;;;;;;;;;;;;;;;;;4398558;32;68075;-71
2022/12/21 08:44:02;;;;;;;;;;;;;;;;;;4387884;32;71671;-72
2022/12/21 08:46:48;;;;;;;;;;;;;;;;;;4387597;32;67174;-68
2022/12/21 08:49:35;;;;;;;;;;;;;;;;;;4398882;32;66969;-72
2022/12/21 08:52:21;;;;;;;;;;;;;;;;;;4398564;32;60885;-70
2022/12/21 08:55:08;;;;;;;;;;;;;;;;;;4387339;32;69478;-72
2022/12/21 08:57:55;;;;;;;;;;;;;;;;;;4385347;32;67430;-71
2022/12/21 09:00:44;;;;;;;;;;;;;;;;;;4387690;32;66278;-70
2022/12/21 09:03:30;;;;;;;;;;;;;;;;;;4388100;32;58422;-71
2022/12/21 09:06:16;;;;;;;;;;;;;;;;;;4388625;32;70205;-71
2022/12/21 09:09:02;;;;;;;;;;;;;;;;;;4388403;32;68823;-70
2022/12/21 09:11:49;;;;;;;;;;;;;;;;;;4387879;32;67990;-70
2022/12/21 09:14:35;;;;;;;;;;;;;;;;;;4398973;32;71629;-70
2022/12/21 09:17:22;;;;;;;;;;;;;;;;;;4399134;32;66361;-71
2022/12/21 09:20:08;;;;;;;;;;;;;;;;;;4399171;32;67083;-71
2022/12/21 09:22:55;;;;;;;;;;;;;;;;;;4378192;32;59833;-70
2022/12/21 09:25:42;;;;;;;;;;;;;;;;;;4377751;32;69128;-71
2022/12/21 09:28:28;;;;;;;;;;;;;;;;;;4399134;32;66428;-71
2022/12/21 09:31:18;;;;;;;;;;;;;;;;;;4399011;32;68041;-71
2022/12/21 09:34:05;;;;;;;;;;;;;;;;;;4399239;32;59441;-70
2022/12/21 09:36:51;;;;;;;;;;;;;;;;;;4400055;32;70069;-70
2022/12/21 09:39:38;;;;;;;;;;;;;;;;;;4398276;32;68743;-70
2022/12/21 09:42:31;;;;;;;;;;;;;;;;;;4400117;32;67864;-70
2022/12/21 09:45:20;;;;;;;;;;;;;;;;;;4398658;32;72061;-71
2022/12/21 09:48:10;;;;;;;;;;;;;;;;;;4387760;32;65241;-71
2022/12/21 09:51:00;;;;;;;;;;;;;;;;;;4388399;32;67899;-71
2022/12/21 09:53:54;;;;;;;;;;;;;;;;;;4387382;32;68025;-70
2022/12/21 09:56:43;;;;;;;;;;;;;;;;;;4387923;32;71717;-70
2022/12/21 09:59:29;;;;;;;;;;;;;;;;;;4398786;32;66567;-70
2022/12/21 10:02:23;;;;;;;;;;;;;;;;;;4398416;32;66760;-69
2022/12/21 10:05:19;;;;;;;;;;;;;;;;;;4400057;32;59012;-70
2022/12/21 10:08:05;;;;;;;;;;;;;;;;;;4398289;32;69344;-71
2022/12/21 10:10:54;;;;;;;;;;;;;;;;;;4397553;32;69489;-72
2022/12/21 10:14:12;;;;;;;;;;;;;;;;;;4376424;32;65992;-71
2022/12/21 10:17:06;;;;;;;;;;;;;;;;;;4373000;32;58983;-71
2022/12/21 10:19:59;;;;;;;;;;;;;;;;;;4376462;32;69565;-70
2022/12/21 10:22:46;;;;;;;;;;;;;;;;;;4399483;32;69957;-70
2022/12/21 10:25:42;;;;;;;;;;;;;;;;;;4398440;32;66752;-70
2022/12/21 10:28:35;;;;;;;;;;;;;;;;;;4365688;32;69303;-71
2022/12/21 10:31:28;;;;;;;;;;;;;;;;;;4399408;32;66084;-71
2022/12/21 10:34:25;;;;;;;;;;;;;;;;;;4398154;32;67581;-72
2022/12/21 10:37:16;;;;;;;;;;;;;;;;;;4397891;32;59986;-71
2022/12/21 10:40:02;;;;;;;;;;;;;;;;;;4387288;32;69957;-70
2022/12/21 10:42:49;;;;;;;;;;;;;;;;;;4398205;32;65954;-71
2022/12/21 10:45:35;;;;;;;;;;;;;;;;;;4398306;32;67798;-72
2022/12/21 10:48:21;;;;;;;;;;;;;;;;;;4376042;32;60492;-71
2022/12/21 10:51:17;;;;;;;;;;;;;;;;;;4386808;32;69672;-71
2022/12/21 10:54:05;;;;;;;;;;;;;;;;;;4397709;32;68799;-70
2022/12/21 10:56:51;;;;;;;;;;;;;;;;;;4387224;32;67690;-70
2022/12/21 10:59:40;;;;;;;;;;;;;;;;;;4397902;32;71965;-72
2022/12/21 11:02:38;;;;;;;;;;;;;;;;;;4397715;32;66092;-71
2022/12/21 11:05:26;;;;;;;;;;;;;;;;;;4398062;32;67527;-71
2022/12/21 11:08:13;;;;;;;;;;;;;;;;;;4387026;32;66815;-72
2022/12/21 11:11:01;;;;;;;;;;;;;;;;;;4386685;32;70853;-70
2022/12/21 11:13:47;;;;;;;;;;;;;;;;;;4399191;32;66159;-71
2022/12/21 11:16:33;;;;;;;;;;;;;;;;;;4386914;32;66736;-71
2022/12/21 11:19:21;;;;;;;;;;;;;;;;;;4399011;32;59940;-71
2022/12/21 11:22:07;;;;;;;;;;;;;;;;;;4386742;32;69167;-70
2022/12/21 11:24:56;;;;;;;;;;;;;;;;;;4397530;32;69466;-72
2022/12/21 11:27:47;;;;;;;;;;;;;;;;;;4397418;32;66840;-70
2022/12/21 11:30:35;;;;;;;;;;;;;;;;;;4397390;32;70691;-70
2022/12/21 11:33:21;;;;;;;;;;;;;;;;;;4386807;32;70195;-70
2022/12/21 11:36:14;;;;;;;;;;;;;;;;;;4386981;32;69242;-70
2022/12/21 11:39:13;;;;;;;;;;;;;;;;;;4365126;32;68380;-72
2022/12/21 11:42:00;;;;;;;;;;;;;;;;;;4386252;32;72794;-71
2022/12/21 11:44:46;;;;;;;;;;;;;;;;;;4397618;32;66543;-71
2022/12/21 11:47:37;;;;;;;;;;;;;;;;;;4388650;32;67326;-72
2022/12/21 11:50:29;;;;;;;;;;;;;;;;;;4390306;32;59644;-70
2022/12/21 11:53:18;;;;;;;;;;;;;;;;;;4389598;32;70238;-71
2022/12/21 11:56:11;;;;;;;;;;;;;;;;;;4381840;32;68502;-71
2022/12/21 11:59:03;;;;;;;;;;;;;;;;;;4377421;32;67569;-70
2022/12/21 12:01:52;;;;;;;;;;;;;;;;;;4399400;32;59756;-71
2022/12/21 12:04:52;;;;;;;;;;;;;;;;;;4386820;32;70094;-71
2022/12/21 12:07:43;;;;;;;;;;;;;;;;;;4397400;32;68896;-72
2022/12/21 12:10:29;;;;;;;;;;;;;;;;;;4397409;32;68056;-71
2022/12/21 12:13:18;;;;;;;;;;;;;;;;;;4398501;32;72184;-70
2022/12/21 12:16:12;;;;;;;;;;;;;;;;;;4399257;32;65054;-70
2022/12/21 12:19:08;;;;;;;;;;;;;;;;;;4375408;32;68569;-69
2022/12/21 12:22:13;;;;;;;;;;;;;;;;;;4386590;32;58839;-71
2022/12/21 12:25:15;;;;;;;;;;;;;;;;;;4396725;32;71976;-70
2022/12/21 12:28:04;;;;;;;;;;;;;;;;;;4385756;32;65107;-70
2022/12/21 12:31:10;;;;;;;;;;;;;;;;;;4386247;32;67421;-70
2022/12/21 12:34:14;;;;;;;;;;;;;;;;;;4387460;32;59016;-70
2022/12/21 12:37:06;;;;;;;;;;;;;;;;;;4388979;32;69779;-71
2022/12/21 12:39:53;;;;;;;;;;;;;;;;;;4400641;32;69235;-71
2022/12/21 12:42:52;;;;;;;;;;;;;;;;;;4388139;32;66809;-70
2022/12/21 12:45:54;;;;;;;;;;;;;;;;;;4388813;32;71866;-71
2022/12/21 12:48:48;;;;;;;;;;;;;;;;;;4388457;32;70167;-71
2022/12/21 12:51:47;;;;;;;;;;;;;;;;;;4388690;32;69430;-71
2022/12/21 12:54:48;;;;;;;;;;;;;;;;;;4400586;32;68061;-71
2022/12/21 12:57:34;;;;;;;;;;;;;;;;;;4387700;32;70743;-71
2022/12/21 13:00:21;;;;;;;;;;;;;;;;;;4400634;32;66304;-70
2022/12/21 13:03:15;;;;;;;;;;;;;;;;;;4399117;32;67015;-72
2022/12/21 13:06:21;;;;;;;;;;;;;;;;;;4388661;32;59081;-72
2022/12/21 13:09:07;;;;;;;;;;;;;;;;;;4399173;32;70249;-71
2022/12/21 13:11:56;;;;;;;;;;;;;;;;;;4387696;32;67280;-69
2022/12/21 13:14:47;;;;;;;;;;;;;;;;;;4388119;32;66894;-68
2022/12/21 13:17:39;;;;;;;;;;;;;;;;;;4388611;32;59355;-71
2022/12/21 13:20:26;;;;;;;;;;;;;;;;;;4400174;32;69958;-71
2022/12/21 13:23:31;;;;;;;;;;;;;;;;;;4377002;32;67685;-70
2022/12/21 13:26:20;;;;;;;;;;;;;;;;;;4398675;32;67787;-72
2022/12/21 13:29:25;;;;;;;;;;;;;;;;;;4398543;32;71531;-69
2022/12/21 13:32:12;;;;;;;;;;;;;;;;;;4398780;32;65088;-69
2022/12/21 13:35:34;;;;;;;;;;;;;;;;;;4398734;32;67233;-72
2022/12/21 13:38:41;;;;;;;;;;;;;;;;;;4339830;32;61236;-69
2022/12/21 13:41:32;;;;;;;;;;;;;;;;;;4398141;32;70761;-71
2022/12/21 13:44:39;;;;;;;;;;;;;;;;;;4388082;32;65873;-68
2022/12/21 13:47:26;;;;;;;;;;;;;;;;;;4398152;32;68020;-71
2022/12/21 13:50:12;;;;;;;;;;;;;;;;;;4398953;32;59779;-70
2022/12/21 13:53:10;;;;;;;;;;;;;;;;;;4387328;32;70797;-71
2022/12/21 13:55:57;;;;;;;;;;;;;;;;;;4387718;32;69721;-69
2022/12/21 13:58:47;;;;;;;;;;;;;;;;;;4398062;32;67496;-69
2022/12/21 14:01:52;;;;;;;;;;;;;;;;;;4387880;32;71966;-72
2022/12/21 14:04:41;;;;;;;;;;;;;;;;;;4400079;32;66141;-68
2022/12/21 14:07:50;;;;;;;;;;;;;;;;;;4398551;32;68816;-69
2022/12/21 14:10:43;;;;;;;;;;;;;;;;;;4387115;32;67615;-70
2022/12/21 14:13:32;;;;;;;;;;;;;;;;;;4376808;32;72616;-71
2022/12/21 14:16:22;;;;;;;;;;;;;;;;;;4398214;32;66030;-72
2022/12/21 14:19:21;;;;;;;;;;;;;;;;;;4398321;32;67427;-69
2022/12/21 14:22:11;;;;;;;;;;;;;;;;;;4388052;32;59853;-68
2022/12/21 14:25:00;;;;;;;;;;;;;;;;;;4398018;32;69931;-69
2022/12/21 14:28:03;;;;;;;;;;;;;;;;;;4398167;32;68643;-66
2022/12/21 14:30:49;;;;;;;;;;;;;;;;;;4376205;32;64766;-69
2022/12/21 14:33:55;;;;;;;;;;;;;;;;;;4398436;32;58843;-66
2022/12/21 14:36:59;;;;;;;;;;;;;;;;;;4376551;32;69322;-72
2022/12/21 14:39:46;;;;;;;;;;;;;;;;;;4399414;32;69454;-67
2022/12/21 14:42:41;;;;;;;;;;;;;;;;;;4399525;32;67772;-66
2022/12/21 14:45:33;;;;;;;;;;;;;;;;;;4399087;32;71119;-67
2022/12/21 14:48:28;;;;;;;;;;;;;;;;;;4398869;32;65802;-67
2022/12/21 14:51:32;;;;;;;;;;;;;;;;;;4397412;32;68159;-69
2022/12/21 14:54:28;;;;;;;;;;;;;;;;;;4376357;32;60107;-68
2022/12/21 14:57:16;;;;;;;;;;;;;;;;;;4398462;32;69174;-70
2022/12/21 15:00:02;;;;;;;;;;;;;;;;;;4397806;32;65239;-72
2022/12/21 15:02:56;;;;;;;;;;;;;;;;;;4387270;32;68551;-71
2022/12/21 15:05:46;;;;;;;;;;;;;;;;;;4397966;32;58809;-72
2022/12/21 15:08:37;;;;;;;;;;;;;;;;;;4364770;32;70804;-73
2022/12/21 15:11:25;;;;;;;;;;;;;;;;;;4397240;32;69083;-71
2022/12/21 15:14:27;;;;;;;;;;;;;;;;;;4398929;32;67585;-72
2022/12/21 15:17:16;;;;;;;;;;;;;;;;;;4397156;32;72394;-67
2022/12/21 15:20:03;;;;;;;;;;;;;;;;;;4399416;32;66167;-69
2022/12/21 15:22:50;;;;;;;;;;;;;;;;;;4397644;32;69631;-72
2022/12/21 15:25:37;;;;;;;;;;;;;;;;;;4375393;32;68661;-69
2022/12/21 15:28:24;;;;;;;;;;;;;;;;;;4397373;32;72005;-69
2022/12/21 15:31:29;;;;;;;;;;;;;;;;;;4398847;32;66430;-72
2022/12/21 15:34:23;;;;;;;;;;;;;;;;;;4397534;32;68042;-72
2022/12/21 15:37:13;;;;;;;;;;;;;;;;;;4398962;32;59849;-71
2022/12/21 15:40:00;;;;;;;;;;;;;;;;;;4386227;32;68307;-71
2022/12/21 15:43:07;;;;;;;;;;;;;;;;;;4397510;32;69689;-70
2022/12/21 15:45:56;;;;;;;;;;;;;;;;;;4394303;32;67855;-70
2022/12/21 15:48:57;;;;;;;;;;;;;;;;;;4397114;32;60326;-71
2022/12/21 15:51:45;;;;;;;;;;;;;;;;;;4398466;32;70247;-69
2022/12/21 15:54:32;;;;;;;;;;;;;;;;;;4386782;32;68716;-69
2022/12/21 15:57:18;;;;;;;;;;;;;;;;;;4375993;32;67156;-70
2022/12/21 16:00:05;;;;;;;;;;;;;;;;;;4375387;32;71738;-70
2022/12/21 16:03:00;;;;;;;;;;;;;;;;;;4397240;32;65342;-69
2022/12/21 16:05:47;;;;;;;;;;;;;;;;;;4375405;32;65871;-69
2022/12/21 16:08:33;;;;;;;;;;;;;;;;;;4387019;32;59496;-70
2022/12/21 16:11:27;;;;;;;;;;;;;;;;;;4399880;32;69155;-70
2022/12/21 16:14:23;;;;;;;;;;;;;;;;;;4389338;32;66380;-70
2022/12/21 16:17:23;;;;;;;;;;;;;;;;;;4399774;32;68130;-68
2022/12/21 16:20:09;;;;;;;;;;;;;;;;;;4378028;32;59302;-69
2022/12/21 16:22:56;;;;;;;;;;;;;;;;;;4378350;32;69262;-70
2022/12/21 16:25:44;;;;;;;;;;;;;;;;;;4377704;32;69975;-68
2022/12/21 16:28:31;;;;;;;;;;;;;;;;;;4388525;32;67425;-69
2022/12/21 16:31:30;;;;;;;;;;;;;;;;;;4399568;32;71724;-69
2022/12/21 16:34:22;;;;;;;;;;;;;;;;;;4401061;32;66486;-70
2022/12/21 16:37:13;;;;;;;;;;;;;;;;;;4367324;32;68739;-70
2022/12/21 16:40:03;;;;;;;;;;;;;;;;;;4399524;32;67715;-70
2022/12/21 16:42:51;;;;;;;;;;;;;;;;;;4388745;32;71745;-70
2022/12/21 16:45:42;;;;;;;;;;;;;;;;;;4399532;32;66078;-70
2022/12/21 16:48:39;;;;;;;;;;;;;;;;;;4377134;32;68534;-68
2022/12/21 16:51:39;;;;;;;;;;;;;;;;;;4377537;32;59445;-70
2022/12/21 16:54:43;;;;;;;;;;;;;;;;;;4388534;32;69753;-70
2022/12/21 16:57:29;;;;;;;;;;;;;;;;;;4399437;32;69417;-70
2022/12/21 17:00:16;;;;;;;;;;;;;;;;;;4400536;32;68179;-71
2022/12/21 17:03:32;;;;;;;;;;;;;;;;;;4399632;32;72064;-71
2022/12/21 17:06:39;;;;;;;;;;;;;;;;;;4393998;32;70442;-69
2022/12/21 17:09:26;;;;;;;;;;;;;;;;;;4398874;32;68181;-69
2022/12/21 17:12:15;;;;;;;;;;;;;;;;;;4399106;32;67887;-69
2022/12/21 17:15:02;;;;;;;;;;;;;;;;;;4399017;32;70688;-70
2022/12/21 17:17:48;;;;;;;;;;;;;;;;;;4388470;32;65809;-70
2022/12/21 17:20:34;;;;;;;;;;;;;;;;;;4388023;32;68017;-70
2022/12/21 17:23:22;;;;;;;;;;;;;;;;;;4400508;32;60060;-70
2022/12/21 17:26:28;;;;;;;;;;;;;;;;;;4377409;32;70850;-69
2022/12/21 17:29:14;;;;;;;;;;;;;;;;;;4398913;32;68700;-70
2022/12/21 17:32:01;;;;;;;;;;;;;;;;;;4400184;32;68241;-70
2022/12/21 17:34:48;;;;;;;;;;;;;;;;;;4399323;32;59567;-70
2022/12/21 17:37:34;;;;;;;;;;;;;;;;;;4388125;32;69556;-69
2022/12/21 17:40:22;;;;;;;;;;;;;;;;;;4376980;32;68986;-69
2022/12/21 17:43:08;;;;;;;;;;;;;;;;;;4387819;32;68390;-69
2022/12/21 17:45:55;;;;;;;;;;;;;;;;;;4387913;32;71102;-70
2022/12/21 17:48:42;;;;;;;;;;;;;;;;;;4387593;32;67018;-70
2022/12/21 17:51:28;;;;;;;;;;;;;;;;;;4387862;32;68344;-69
2022/12/21 17:54:15;;;;;;;;;;;;;;;;;;4387905;32;67893;-70
2022/12/21 17:57:04;;;;;;;;;;;;;;;;;;4398483;32;70855;-69
2022/12/21 17:59:50;;;;;;;;;;;;;;;;;;4387906;32;66118;-68
2022/12/21 18:02:37;;;;;;;;;;;;;;;;;;4398609;32;67869;-70
2022/12/21 18:05:24;;;;;;;;;;;;;;;;;;4388130;32;58755;-69
2022/12/21 18:08:10;;;;;;;;;;;;;;;;;;4398574;32;70012;-70
2022/12/21 18:10:57;;;;;;;;;;;;;;;;;;4376793;32;70141;-70
2022/12/21 18:13:43;;;;;;;;;;;;;;;;;;4400188;32;67184;-70
2022/12/21 18:16:36;;;;;;;;;;;;;;;;;;4398925;32;71864;-70
2022/12/21 18:19:23;;;;;;;;;;;;;;;;;;4399966;32;70411;-70
2022/12/21 18:22:10;;;;;;;;;;;;;;;;;;4399479;32;69446;-69
2022/12/21 18:24:56;;;;;;;;;;;;;;;;;;4387409;32;67601;-70
2022/12/21 18:27:42;;;;;;;;;;;;;;;;;;4376074;32;70346;-70
2022/12/21 18:30:29;;;;;;;;;;;;;;;;;;4387258;32;66253;-70
2022/12/21 18:33:15;;;;;;;;;;;;;;;;;;4398361;32;66752;-70
2022/12/21 18:36:02;;;;;;;;;;;;;;;;;;4387725;32;59429;-69
2022/12/21 18:38:49;;;;;;;;;;;;;;;;;;4399354;32;70302;-70
2022/12/21 18:41:35;;;;;;;;;;;;;;;;;;4399190;32;69466;-69
2022/12/21 18:44:22;;;;;;;;;;;;;;;;;;4398135;32;68079;-69
2022/12/21 18:47:09;;;;;;;;;;;;;;;;;;4376157;32;60387;-69
2022/12/21 18:49:56;;;;;;;;;;;;;;;;;;4386851;32;70593;-70
2022/12/21 18:52:44;;;;;;;;;;;;;;;;;;4376615;32;69498;-69
2022/12/21 18:55:30;;;;;;;;;;;;;;;;;;4387182;32;67830;-69
2022/12/21 18:58:16;;;;;;;;;;;;;;;;;;4397747;32;71725;-70
2022/12/21 19:01:05;;;;;;;;;;;;;;;;;;4397125;32;66898;-70
2022/12/21 19:03:52;;;;;;;;;;;;;;;;;;4399561;32;67187;-69
2022/12/21 19:06:38;;;;;;;;;;;;;;;;;;4398242;32;59461;-70
2022/12/21 19:09:25;;;;;;;;;;;;;;;;;;4398885;32;71247;-69
2022/12/21 19:12:16;;;;;;;;;;;;;;;;;;4386573;32;66808;-70
2022/12/21 19:15:03;;;;;;;;;;;;;;;;;;4387039;32;67240;-70
2022/12/21 19:17:50;;;;;;;;;;;;;;;;;;4397463;32;60311;-70
2022/12/21 19:20:36;;;;;;;;;;;;;;;;;;4397479;32;70344;-70
2022/12/21 19:23:25;;;;;;;;;;;;;;;;;;4397051;32;69842;-70
2022/12/21 19:26:11;;;;;;;;;;;;;;;;;;4386965;32;67101;-69
2022/12/21 19:28:58;;;;;;;;;;;;;;;;;;4397242;32;72190;-68
2022/12/21 19:31:44;;;;;;;;;;;;;;;;;;4397841;32;66303;-69
2022/12/21 19:34:31;;;;;;;;;;;;;;;;;;4386832;32;69464;-70
2022/12/21 19:37:21;;;;;;;;;;;;;;;;;;4386638;32;68118;-70